Time;durP1;ratioP1;P1;durP2;ratioP2;P2;SDS_P1;SDS_P2;PMS_P1;PMS_P2;Temp;Humidity;BMP_temperature;BMP_pressure;BME280_temperature;BME280_humidity;BME280_pressure;Samples;Min_cycle;Max_cycle;Signal;HPM_P1;HPM_P2
2022/12/12 00:01:56;;;;;;;50.43;24.30;;;-1.30;1.00;;;;;;6212593;23;20437;-40
2022/12/12 00:04:22;;;;;;;47.40;21.83;;;-1.40;99.90;;;;;;6193126;23;20494;-40
2022/12/12 00:06:48;;;;;;;48.77;21.40;;;-1.40;1.00;;;;;;6212521;23;20433;-40
2022/12/12 00:09:13;;;;;;;52.17;23.07;;;-1.40;1.00;;;;;;6212540;23;20230;-40
2022/12/12 00:11:39;;;;;;;50.77;22.97;;;-1.40;1.00;;;;;;6212784;23;20216;-39
2022/12/12 00:14:05;;;;;;;48.60;23.27;;;-1.40;1.00;;;;;;6186520;23;20154;-39
2022/12/12 00:16:31;;;;;;;50.57;22.20;;;-1.40;1.00;;;;;;6212618;23;20762;-40
2022/12/12 00:18:56;;;;;;;54.43;23.67;;;-1.30;1.00;;;;;;6212406;23;20235;-41
2022/12/12 00:21:26;;;;;;;52.57;22.60;;;-1.30;1.00;;;;;;6213022;23;20153;-39
2022/12/12 00:23:52;;;;;;;45.40;21.90;;;-1.30;1.00;;;;;;6212892;23;20217;-40
2022/12/12 00:26:29;;;;;;;47.47;21.07;;;-1.30;99.90;;;;;;6212623;23;20392;-41
2022/12/12 00:28:56;;;;;;;49.97;20.87;;;-1.30;1.00;;;;;;6185511;23;20389;-41
2022/12/12 00:31:22;;;;;;;46.73;22.30;;;-1.30;1.00;;;;;;6212737;23;20462;-40
2022/12/12 00:33:48;;;;;;;45.40;21.00;;;-1.30;99.90;;;;;;6212729;23;20427;-40
2022/12/12 00:36:25;;;;;;;48.17;21.50;;;-1.30;99.90;;;;;;6212948;23;20205;-40
2022/12/12 00:38:52;;;;;;;48.70;20.67;;;-1.30;99.90;;;;;;6185592;23;20384;-39
2022/12/12 00:41:18;;;;;;;54.87;22.17;;;-1.30;99.90;;;;;;6212984;23;20366;-39
2022/12/12 00:43:44;;;;;;;43.13;21.07;;;-1.30;99.90;;;;;;6212472;23;20834;-40
2022/12/12 00:46:16;;;;;;;51.17;22.90;;;-1.30;99.90;;;;;;6212795;23;20382;-39
2022/12/12 00:48:42;;;;;;;42.33;19.07;;;-1.30;99.90;;;;;;6212218;23;20221;-40
2022/12/12 00:51:10;;;;;;;44.83;21.27;;;-1.30;99.90;;;;;;6212459;23;20394;-40
2022/12/12 00:53:37;;;;;;;47.90;21.70;;;-1.30;99.90;;;;;;6212429;23;20771;-39
2022/12/12 00:56:04;;;;;;;46.23;21.13;;;-1.30;99.90;;;;;;6212339;23;20413;-39
2022/12/12 00:58:30;;;;;;;43.97;20.90;;;-1.30;99.90;;;;;;6185325;23;20484;-40
2022/12/12 01:00:56;;;;;;;45.33;22.00;;;-1.30;99.90;;;;;;6212612;23;20374;-40
2022/12/12 01:03:22;;;;;;;53.70;22.30;;;-1.30;99.90;;;;;;6187668;23;20480;-39
2022/12/12 01:05:47;;;;;;;51.83;22.37;;;-1.30;99.90;;;;;;6213592;23;20206;-39
2022/12/12 01:08:13;;;;;;;46.20;22.00;;;-1.40;99.90;;;;;;6214246;23;20165;-39
2022/12/12 01:10:40;;;;;;;50.47;21.63;;;-1.40;99.90;;;;;;6213953;23;20206;-40
2022/12/12 01:13:06;;;;;;;53.53;21.37;;;-1.40;99.90;;;;;;6214430;23;20384;-38
2022/12/12 01:15:31;;;;;;;53.97;23.03;;;-1.50;99.90;;;;;;6213895;23;20421;-40
2022/12/12 01:17:57;;;;;;;46.77;21.20;;;-1.50;99.90;;;;;;6213755;23;20520;-40
2022/12/12 01:20:25;;;;;;;42.73;21.17;;;-1.50;99.90;;;;;;6213789;23;20473;-40
2022/12/12 01:22:51;;;;;;;40.80;20.30;;;-1.60;99.90;;;;;;6213733;23;20182;-40
2022/12/12 01:25:17;;;;;;;43.40;20.53;;;-1.70;99.90;;;;;;6214201;23;20386;-40
2022/12/12 01:27:44;;;;;;;48.37;21.77;;;-1.80;99.90;;;;;;6214022;23;20181;-40
2022/12/12 01:30:15;;;;;;;44.40;22.00;;;-1.90;99.90;;;;;;6213627;23;20369;-41
2022/12/12 01:32:40;;;;;;;46.73;20.57;;;-2.00;99.90;;;;;;6213811;23;20370;-40
2022/12/12 01:35:07;;;;;;;46.87;20.20;;;-2.00;99.90;;;;;;6213138;23;20391;-40
2022/12/12 01:37:34;;;;;;;44.53;20.13;;;-2.10;99.90;;;;;;6213678;23;20194;-39
2022/12/12 01:40:01;;;;;;;44.93;19.70;;;-2.10;99.90;;;;;;6212970;23;20533;-40
2022/12/12 01:42:27;;;;;;;43.17;20.23;;;-2.20;99.90;;;;;;6214105;23;20767;-40
2022/12/12 01:44:53;;;;;;;51.83;20.13;;;-2.20;99.90;;;;;;6213471;23;20390;-40
2022/12/12 01:47:21;;;;;;;42.10;19.93;;;-2.30;99.90;;;;;;6213632;23;20432;-40
2022/12/12 01:49:56;;;;;;;49.03;21.00;;;-2.30;99.90;;;;;;6213536;23;20389;-39
2022/12/12 01:52:29;;;;;;;45.17;20.03;;;-2.30;99.90;;;;;;6213865;23;20370;-40
2022/12/12 01:54:58;;;;;;;45.90;20.67;;;-2.40;99.90;;;;;;6186512;23;20389;-40
2022/12/12 01:57:32;;;;;;;44.93;21.57;;;-2.40;99.90;;;;;;6213344;23;20748;-41
2022/12/12 02:00:01;;;;;;;44.40;21.13;;;-2.50;99.90;;;;;;6213276;23;20835;-39
2022/12/12 02:02:28;;;;;;;44.57;20.30;;;-2.60;99.90;;;;;;6213732;23;20370;-40
2022/12/12 02:04:54;;;;;;;45.60;20.77;;;-2.60;99.90;;;;;;6213243;23;20420;-39
2022/12/12 02:07:19;;;;;;;45.97;20.67;;;-2.70;99.90;;;;;;6213782;23;20735;-40
2022/12/12 02:09:47;;;;;;;46.13;20.27;;;-2.70;99.90;;;;;;6213372;23;20374;-40
2022/12/12 02:12:13;;;;;;;57.37;22.63;;;-2.80;99.90;;;;;;6213618;23;20165;-39
2022/12/12 02:14:43;;;;;;;46.93;21.17;;;-2.80;99.90;;;;;;6213586;23;20461;-40
2022/12/12 02:17:35;;;;;;;43.73;20.47;;;-2.90;1.00;;;;;;6213238;23;20436;-39
2022/12/12 02:20:28;;;;;;;51.13;20.30;;;-2.90;1.00;;;;;;6186016;23;20381;-39
2022/12/12 02:23:14;;;;;;;49.73;21.47;;;-2.90;1.00;;;;;;6213308;23;20664;-40
2022/12/12 02:25:40;;;;;;;43.87;19.60;;;-3.00;1.00;;;;;;6213541;23;20444;-39
2022/12/12 02:28:24;;;;;;;40.13;19.57;;;-3.00;1.00;;;;;;6213508;23;20369;-39
2022/12/12 02:30:59;;;;;;;45.30;20.47;;;-3.10;1.00;;;;;;6213480;23;20573;-40
2022/12/12 02:33:49;;;;;;;47.10;20.10;;;-3.10;1.00;;;;;;6213692;23;20384;-40
2022/12/12 02:36:29;;;;;;;48.77;21.23;;;-3.20;1.00;;;;;;6213640;23;20447;-39
2022/12/12 02:39:19;;;;;;;50.43;20.50;;;-3.30;1.00;;;;;;6213047;23;20461;-39
2022/12/12 02:42:32;;;;;;;49.13;20.47;;;-3.30;1.00;;;;;;6213344;23;20401;-38
2022/12/12 02:45:16;;;;;;;48.10;19.90;;;-3.40;1.00;;;;;;6121306;23;20391;-41
2022/12/12 02:48:27;;;;;;;45.57;19.20;;;-3.40;1.00;;;;;;6121136;23;20500;-40
2022/12/12 02:50:54;;;;;;;45.00;20.20;;;-3.50;1.00;;;;;;6198114;23;20401;-39
2022/12/12 02:53:22;;;;;;;50.27;21.60;;;-3.50;1.00;;;;;;6213516;23;20369;-41
2022/12/12 02:55:48;;;;;;;49.10;21.03;;;-3.50;4.70;;;;;;6212988;23;20358;-41
2022/12/12 02:58:17;;;;;;;52.83;21.50;;;-3.50;57.80;;;;;;6213711;23;20460;-39
2022/12/12 03:01:09;;;;;;;50.00;20.87;;;-3.50;43.20;;;;;;6213219;23;20369;-40
2022/12/12 03:10:17;;;;;;;51.23;22.03;;;-3.60;99.90;;;;;;6212754;23;20967;-41
2022/12/12 03:12:59;;;;;;;48.50;21.73;;;-3.60;99.90;;;;;;6213409;23;20366;-41
2022/12/12 03:16:12;;;;;;;49.13;20.23;;;-3.50;1.00;;;;;;6213384;23;20365;-41
2022/12/12 03:18:42;;;;;;;46.43;20.03;;;-3.50;99.90;;;;;;6120571;23;20889;-41
2022/12/12 03:21:15;;;;;;;47.77;19.90;;;-3.60;99.90;;;;;;6203763;23;20392;-42
2022/12/12 03:23:45;;;;;;;49.47;20.63;;;-3.60;99.90;;;;;;6212549;23;20412;-41
2022/12/12 03:26:34;;;;;;;49.67;20.80;;;-3.70;99.90;;;;;;6213339;23;20413;-43
2022/12/12 03:29:20;;;;;;;46.23;20.63;;;-3.70;99.90;;;;;;6211869;23;20826;-41
2022/12/12 03:31:50;;;;;;;54.50;21.80;;;-3.70;99.90;;;;;;6212770;23;20362;-41
2022/12/12 03:34:24;;;;;;;46.67;21.13;;;-3.80;1.00;;;;;;6213080;23;20366;-41
2022/12/12 03:37:08;;;;;;;49.10;21.83;;;-3.80;1.00;;;;;;6212932;23;20374;-41
2022/12/12 03:39:46;;;;;;;52.97;21.60;;;-3.80;1.00;;;;;;6212134;23;20477;-42
2022/12/12 03:42:26;;;;;;;54.17;22.80;;;-3.80;1.00;;;;;;6212597;23;20366;-52
2022/12/12 03:45:00;;;;;;;54.73;21.10;;;-3.80;1.00;;;;;;6212782;23;20369;-41
2022/12/12 03:47:50;;;;;;;50.43;21.00;;;-3.80;1.00;;;;;;6212450;23;20445;-41
2022/12/12 03:50:20;;;;;;;43.93;21.60;;;-3.80;1.00;;;;;;6213145;23;20369;-40
2022/12/12 03:53:06;;;;;;;53.80;22.70;;;-3.80;1.00;;;;;;6213090;23;20683;-42
2022/12/12 03:55:42;;;;;;;48.90;22.57;;;-3.80;99.90;;;;;;6213004;23;20392;-41
2022/12/12 03:58:19;;;;;;;54.27;22.63;;;-3.80;8.40;;;;;;6212465;23;20365;-41
2022/12/12 04:00:49;;;;;;;46.60;20.70;;;-3.80;1.00;;;;;;6213102;23;20362;-41
2022/12/12 04:03:42;;;;;;;54.97;22.40;;;-3.90;1.00;;;;;;6213228;23;20394;-42
2022/12/12 04:06:28;;;;;;;52.70;22.83;;;-3.90;1.00;;;;;;6212300;23;20535;-41
2022/12/12 04:15:52;;;;;;;52.80;23.30;;;-4.10;1.00;;;;;;6175660;23;20397;-41
2022/12/12 04:18:34;;;;;;;54.17;22.53;;;-4.20;1.00;;;;;;6170845;23;20963;-41
2022/12/12 04:24:25;;;;;;;56.10;23.80;;;-4.20;87.60;;;;;;6212367;23;20384;-42
2022/12/12 04:27:18;;;;;;;57.37;22.13;;;-4.20;99.90;;;;;;6212281;23;20417;-41
2022/12/12 04:29:54;;;;;;;58.70;23.97;;;-4.30;1.00;;;;;;6201845;23;20400;-40
2022/12/12 04:32:35;;;;;;;58.57;24.57;;;-4.20;1.00;;;;;;6212077;23;20376;-41
2022/12/12 04:35:03;;;;;;;63.20;25.33;;;-4.20;1.00;;;;;;6212652;23;20374;-41
2022/12/12 04:37:42;;;;;;;53.87;23.83;;;-4.20;1.00;;;;;;6187585;23;20389;-40
2022/12/12 04:40:12;;;;;;;55.03;23.40;;;-4.20;81.80;;;;;;6214764;23;20441;-40
2022/12/12 04:42:44;;;;;;;53.23;23.00;;;-4.20;99.90;;;;;;6214325;23;20401;-41
2022/12/12 04:45:15;;;;;;;58.93;24.10;;;-4.20;99.90;;;;;;6214707;23;20720;-43
2022/12/12 04:47:43;;;;;;;48.60;23.10;;;-4.20;99.90;;;;;;6214702;23;20417;-41
2022/12/12 04:50:10;;;;;;;57.13;24.83;;;-4.30;99.90;;;;;;6214646;23;20382;-41
2022/12/12 04:52:38;;;;;;;57.93;23.37;;;-4.30;99.90;;;;;;6213910;23;20385;-44
2022/12/12 04:55:04;;;;;;;57.60;24.43;;;-4.30;1.00;;;;;;6214505;23;20358;-41
2022/12/12 04:57:40;;;;;;;59.73;24.23;;;-4.30;1.00;;;;;;6214882;23;20382;-41
2022/12/12 05:00:08;;;;;;;62.07;26.60;;;-4.30;1.00;;;;;;6213870;23;20153;-41
2022/12/12 05:03:01;;;;;;;59.47;24.73;;;-4.30;79.40;;;;;;6213974;23;20834;-41
2022/12/12 05:05:39;;;;;;;54.37;23.87;;;-4.30;99.90;;;;;;6213841;23;20767;-41
2022/12/12 05:08:17;;;;;;;54.10;23.77;;;-4.20;99.90;;;;;;6187538;23;20389;-41
2022/12/12 05:10:44;;;;;;;53.07;22.20;;;-4.30;59.60;;;;;;6213787;23;20800;-41
2022/12/12 05:13:22;;;;;;;54.20;24.60;;;-4.30;1.00;;;;;;6187021;23;20484;-41
2022/12/12 05:15:49;;;;;;;67.20;27.40;;;-4.30;1.00;;;;;;6213724;23;20377;-41
2022/12/12 05:18:15;;;;;;;61.07;25.83;;;-4.30;39.10;;;;;;6213482;23;20890;-41
2022/12/12 05:20:41;;;;;;;63.07;26.30;;;-4.40;99.90;;;;;;6214194;23;20781;-45
2022/12/12 05:23:07;;;;;;;69.60;28.10;;;-4.30;99.90;;;;;;6214432;23;20405;-41
2022/12/12 05:25:32;;;;;;;62.50;26.47;;;-4.30;1.00;;;;;;6213857;23;20155;-42
2022/12/12 05:27:58;;;;;;;53.53;24.33;;;-4.40;1.00;;;;;;6214027;23;20238;-41
2022/12/12 05:30:24;;;;;;;51.13;23.50;;;-4.30;11.80;;;;;;6214181;23;20143;-40
2022/12/12 05:32:50;;;;;;;60.30;25.47;;;-4.30;61.80;;;;;;6214452;23;20507;-41
2022/12/12 05:35:16;;;;;;;56.23;25.73;;;-4.30;99.90;;;;;;6214227;23;20142;-40
2022/12/12 05:37:42;;;;;;;62.67;27.73;;;-4.30;99.90;;;;;;6213599;23;20827;-40
2022/12/12 05:40:10;;;;;;;62.83;25.23;;;-4.40;99.90;;;;;;6213003;23;20455;-40
2022/12/12 05:42:36;;;;;;;61.10;25.97;;;-4.40;99.90;;;;;;6213532;23;20447;-41
2022/12/12 05:45:03;;;;;;;62.53;25.50;;;-4.30;99.90;;;;;;6214047;23;20685;-40
2022/12/12 05:47:28;;;;;;;62.80;27.40;;;-4.30;1.00;;;;;;6213418;23;20174;-40
2022/12/12 05:49:54;;;;;;;59.47;25.17;;;-4.30;99.90;;;;;;6213889;23;20424;-40
2022/12/12 05:52:19;;;;;;;56.70;24.00;;;-4.20;99.90;;;;;;6214264;23;20169;-41
2022/12/12 05:54:45;;;;;;;56.57;24.83;;;-4.20;99.90;;;;;;6214158;23;20147;-40
2022/12/12 05:57:10;;;;;;;68.63;24.70;;;-4.20;99.90;;;;;;6213438;23;20293;-40
2022/12/12 05:59:36;;;;;;;54.47;23.40;;;-4.20;99.90;;;;;;6214251;23;20177;-40
2022/12/12 06:02:02;;;;;;;60.97;25.77;;;-4.10;99.90;;;;;;6214009;23;20146;-41
2022/12/12 06:04:27;;;;;;;69.53;26.00;;;-4.10;1.00;;;;;;6213721;23;20525;-41
2022/12/12 06:06:53;;;;;;;59.77;25.40;;;-4.00;1.00;;;;;;6213182;23;20214;-41
2022/12/12 06:09:18;;;;;;;62.70;26.90;;;-3.90;1.00;;;;;;6213841;23;20139;-41
2022/12/12 06:11:44;;;;;;;66.70;25.67;;;-3.90;62.70;;;;;;6213271;23;20164;-40
2022/12/12 06:14:10;;;;;;;64.40;27.50;;;-3.80;1.00;;;;;;6213723;23;20509;-40
2022/12/12 06:16:36;;;;;;;57.77;25.97;;;-3.80;1.00;;;;;;6214152;23;20162;-40
2022/12/12 06:19:02;;;;;;;74.47;27.37;;;-3.70;1.00;;;;;;6186801;23;20215;-40
2022/12/12 06:21:27;;;;;;;74.03;30.00;;;-3.70;99.90;;;;;;6213937;23;20879;-41
2022/12/12 06:23:53;;;;;;;68.60;29.20;;;-3.60;99.90;;;;;;6213657;23;20169;-41
2022/12/12 06:26:19;;;;;;;63.10;26.97;;;-3.60;99.90;;;;;;6187372;23;20194;-40
2022/12/12 06:28:46;;;;;;;73.33;28.30;;;-3.50;99.90;;;;;;6212861;23;20170;-41
2022/12/12 06:31:13;;;;;;;73.17;30.07;;;-3.50;99.90;;;;;;6213616;23;20374;-41
2022/12/12 06:33:42;;;;;;;69.00;28.63;;;-3.40;99.90;;;;;;6213109;23;20375;-41
2022/12/12 06:36:12;;;;;;;75.67;29.40;;;-3.40;99.90;;;;;;6213859;23;20373;-42
2022/12/12 06:38:39;;;;;;;65.93;27.97;;;-3.30;67.90;;;;;;6213522;23;20370;-41
2022/12/12 06:41:10;;;;;;;67.43;26.97;;;-3.30;64.40;;;;;;6213612;23;20394;-41
2022/12/12 06:43:36;;;;;;;72.70;26.70;;;-3.30;26.60;;;;;;6212981;23;20377;-40
2022/12/12 06:46:03;;;;;;;64.73;27.63;;;-3.30;1.00;;;;;;6213316;23;20429;-40
2022/12/12 06:48:31;;;;;;;64.13;25.30;;;-3.20;1.00;;;;;;6213361;23;20154;-41
2022/12/12 06:50:57;;;;;;;71.83;27.87;;;-3.20;1.00;;;;;;6213319;23;20373;-42
2022/12/12 06:53:23;;;;;;;64.93;26.80;;;-3.20;1.00;;;;;;6212964;23;20405;-41
2022/12/12 06:55:48;;;;;;;65.77;27.37;;;-3.20;1.00;;;;;;6213883;23;20448;-42
2022/12/12 06:58:14;;;;;;;60.70;26.23;;;-3.10;1.00;;;;;;6213427;23;20639;-42
2022/12/12 07:00:40;;;;;;;64.30;28.07;;;-3.10;99.90;;;;;;6213348;23;20552;-41
2022/12/12 07:03:06;;;;;;;64.90;26.57;;;-3.10;99.90;;;;;;6212858;23;20166;-42
2022/12/12 07:05:32;;;;;;;59.53;25.60;;;-3.10;1.00;;;;;;6213027;23;20440;-41
2022/12/12 07:08:01;;;;;;;64.20;26.20;;;-3.00;1.00;;;;;;6213987;23;20436;-42
2022/12/12 07:10:28;;;;;;;64.23;28.13;;;-3.00;1.00;;;;;;6214009;23;20409;-41
2022/12/12 07:12:54;;;;;;;66.17;28.73;;;-3.00;1.00;;;;;;6213534;23;20500;-41
2022/12/12 07:15:20;;;;;;;64.23;26.77;;;-2.90;1.00;;;;;;6186742;23;20413;-43
2022/12/12 07:17:45;;;;;;;74.10;29.00;;;-2.90;99.90;;;;;;6185507;23;20186;-41
2022/12/12 07:20:11;;;;;;;66.27;28.10;;;-2.90;98.50;;;;;;6209731;23;20150;-41
2022/12/12 07:22:37;;;;;;;61.90;25.67;;;-3.00;1.00;;;;;;6213586;23;20250;-42
2022/12/12 07:25:02;;;;;;;67.87;28.37;;;-3.00;99.90;;;;;;6213596;23;20159;-42
2022/12/12 07:27:28;;;;;;;75.90;27.10;;;-3.10;1.00;;;;;;6187730;23;20182;-41
2022/12/12 07:29:54;;;;;;;63.90;26.50;;;-3.10;1.00;;;;;;6213325;23;20139;-42
2022/12/12 07:32:19;;;;;;;60.90;27.43;;;-3.20;99.90;;;;;;6204941;23;20212;-41
2022/12/12 07:34:45;;;;;;;68.87;27.20;;;-3.20;99.90;;;;;;6205901;23;20909;-42
2022/12/12 07:37:10;;;;;;;69.67;26.47;;;-3.30;1.00;;;;;;6205506;23;20924;-42
2022/12/12 07:39:36;;;;;;;67.23;25.23;;;-3.40;1.00;;;;;;6212987;23;20150;-41
2022/12/12 07:42:02;;;;;;;61.80;26.17;;;-3.40;99.90;;;;;;6208553;23;20215;-41
2022/12/12 07:44:28;;;;;;;56.50;25.70;;;-3.50;4.40;;;;;;6210085;23;20229;-41
2022/12/12 07:46:56;;;;;;;68.27;28.57;;;-3.60;24.70;;;;;;6204875;23;20465;-41
2022/12/12 07:49:22;;;;;;;63.17;26.47;;;-3.60;94.20;;;;;;6178192;23;20169;-41
2022/12/12 07:51:47;;;;;;;76.50;29.07;;;-3.60;99.90;;;;;;6180782;23;20401;-41
2022/12/12 07:54:13;;;;;;;63.47;27.07;;;-3.70;99.90;;;;;;6207606;23;20151;-42
2022/12/12 07:56:39;;;;;;;58.80;25.30;;;-3.70;99.90;;;;;;6213085;23;20197;-41
2022/12/12 07:59:04;;;;;;;62.47;26.37;;;-3.60;99.90;;;;;;6212740;23;20158;-46
2022/12/12 08:01:30;;;;;;;60.33;26.27;;;-3.70;99.90;;;;;;6185713;23;20162;-40
2022/12/12 08:03:56;;;;;;;62.47;26.77;;;-3.70;99.90;;;;;;6213493;23;20179;-40
2022/12/12 08:06:22;;;;;;;61.40;26.20;;;-3.70;99.90;;;;;;6213130;23;20248;-41
2022/12/12 08:08:49;;;;;;;59.70;26.37;;;-3.70;99.90;;;;;;6212618;23;20208;-41
2022/12/12 08:11:17;;;;;;;60.87;27.07;;;-3.70;1.00;;;;;;6213295;23;20374;-41
2022/12/12 08:13:43;;;;;;;58.50;26.07;;;-3.70;1.00;;;;;;6213269;23;20370;-41
2022/12/12 08:16:15;;;;;;;65.00;26.60;;;-3.70;99.90;;;;;;6212318;23;21077;-41
2022/12/12 08:18:42;;;;;;;56.57;25.17;;;-3.70;99.90;;;;;;6212682;23;20608;-41
2022/12/12 08:21:09;;;;;;;67.73;26.33;;;-3.70;99.90;;;;;;6211782;23;20392;-41
2022/12/12 08:23:35;;;;;;;63.67;28.87;;;-3.70;99.90;;;;;;6212600;23;20401;-41
2022/12/12 08:26:10;;;;;;;64.60;27.20;;;-3.70;99.90;;;;;;6213181;23;20443;-41
2022/12/12 08:28:36;;;;;;;57.40;25.40;;;-3.60;99.90;;;;;;6212172;23;20380;-47
2022/12/12 08:31:02;;;;;;;66.60;28.40;;;-3.60;26.80;;;;;;6213492;23;20389;-41
2022/12/12 08:33:29;;;;;;;65.10;27.57;;;-3.60;1.00;;;;;;6213433;23;20512;-41
2022/12/12 08:35:54;;;;;;;67.20;28.77;;;-3.50;1.00;;;;;;6213581;23;20400;-41
2022/12/12 08:38:20;;;;;;;72.10;28.87;;;-3.50;1.00;;;;;;6213593;23;20393;-41
2022/12/12 08:40:45;;;;;;;69.00;29.90;;;-3.40;1.00;;;;;;6213227;23;20146;-41
2022/12/12 08:43:11;;;;;;;67.03;29.00;;;-3.40;1.00;;;;;;6213142;23;20162;-41
2022/12/12 08:45:38;;;;;;;74.07;29.30;;;-3.30;1.00;;;;;;6213210;23;20173;-41
2022/12/12 08:48:05;;;;;;;69.13;30.77;;;-3.30;1.00;;;;;;6213342;23;20150;-41
2022/12/12 08:50:31;;;;;;;59.97;28.37;;;-3.20;1.00;;;;;;6213361;23;20385;-41
2022/12/12 08:52:57;;;;;;;63.53;27.77;;;-3.20;1.00;;;;;;6213181;23;20373;-42
2022/12/12 08:55:23;;;;;;;67.37;29.13;;;-3.10;99.90;;;;;;6214082;23;20373;-42
2022/12/12 08:57:48;;;;;;;72.10;28.40;;;-3.10;99.90;;;;;;6213973;23;20392;-41
2022/12/12 09:00:15;;;;;;;71.07;30.40;;;-3.00;99.90;;;;;;6213397;23;20253;-42
2022/12/12 09:02:40;;;;;;;74.07;29.50;;;-3.00;99.90;;;;;;6213334;23;20169;-41
2022/12/12 09:05:06;;;;;;;67.43;29.37;;;-2.90;99.90;;;;;;6213013;23;20523;-41
2022/12/12 09:07:32;;;;;;;73.07;28.47;;;-2.90;99.90;;;;;;6213101;23;20197;-41
2022/12/12 09:09:58;;;;;;;67.47;29.47;;;-2.80;99.90;;;;;;6212969;23;20374;-41
2022/12/12 09:12:23;;;;;;;82.43;32.83;;;-2.80;99.90;;;;;;6213050;23;20143;-42
2022/12/12 09:14:49;;;;;;;62.20;28.63;;;-2.70;99.90;;;;;;6212965;23;20142;-42
2022/12/12 09:17:15;;;;;;;72.37;30.83;;;-2.70;99.90;;;;;;6213330;23;20232;-42
2022/12/12 09:19:40;;;;;;;77.53;31.00;;;-2.60;99.90;;;;;;6213332;23;20142;-41
2022/12/12 09:22:06;;;;;;;73.90;30.53;;;-2.50;99.90;;;;;;6185919;23;20258;-41
2022/12/12 09:24:31;;;;;;;79.90;31.50;;;-2.40;99.90;;;;;;6214301;23;20169;-43
2022/12/12 09:26:58;;;;;;;70.00;30.67;;;-2.30;62.90;;;;;;6212412;23;20603;-42
2022/12/12 09:29:24;;;;;;;78.83;31.07;;;-2.20;1.00;;;;;;6214497;23;20394;-41
2022/12/12 09:31:50;;;;;;;80.43;30.83;;;-2.10;1.00;;;;;;6214083;23;20486;-42
2022/12/12 09:34:16;;;;;;;74.70;30.70;;;-2.10;1.00;;;;;;6212291;23;20370;-41
2022/12/12 09:36:41;;;;;;;71.50;30.30;;;-2.00;1.00;;;;;;6213003;23;20151;-42
2022/12/12 09:39:07;;;;;;;73.53;29.47;;;-2.00;1.00;;;;;;6213954;23;20587;-41
2022/12/12 09:41:32;;;;;;;77.50;31.57;;;-1.90;99.90;;;;;;6214260;23;20198;-42
2022/12/12 09:44:04;;;;;;;69.50;29.90;;;-1.80;99.90;;;;;;6214358;23;20261;-41
2022/12/12 09:46:59;;;;;;;76.53;31.13;;;-1.70;99.90;;;;;;6213475;23;20170;-42
2022/12/12 09:49:44;;;;;;;74.63;31.37;;;-1.60;99.90;;;;;;6194830;23;20448;-42
2022/12/12 09:52:15;;;;;;;66.87;27.90;;;-1.50;99.90;;;;;;6213816;23;20369;-42
2022/12/12 09:54:42;;;;;;;72.10;30.20;;;-1.40;99.90;;;;;;6187220;23;20886;-42
2022/12/12 09:57:24;;;;;;;66.13;28.77;;;-1.30;99.90;;;;;;6213581;23;20704;-42
2022/12/12 10:00:07;;;;;;;78.10;29.67;;;-1.30;10.00;;;;;;6213562;23;20703;-42
2022/12/12 10:03:14;;;;;;;67.27;28.40;;;-1.20;1.00;;;;;;6214192;23;20380;-42
2022/12/12 10:05:43;;;;;;;71.27;31.03;;;-1.30;1.00;;;;;;6214000;23;20429;-41
2022/12/12 10:08:13;;;;;;;68.70;29.90;;;-1.20;1.00;;;;;;6214060;23;21273;-41
2022/12/12 10:10:42;;;;;;;72.30;29.97;;;-1.10;1.00;;;;;;6214011;23;20370;-42
2022/12/12 10:13:25;;;;;;;66.27;29.00;;;-1.00;1.00;;;;;;6214303;23;20457;-42
2022/12/12 10:16:03;;;;;;;70.10;30.30;;;-0.90;1.00;;;;;;6213936;23;20382;-41
2022/12/12 10:18:34;;;;;;;59.80;27.27;;;-0.80;1.00;;;;;;6214285;23;20855;-41
2022/12/12 10:21:03;;;;;;;65.57;28.30;;;-0.80;99.90;;;;;;6213662;23;20685;-42
2022/12/12 10:23:38;;;;;;;64.20;26.73;;;-0.80;99.90;;;;;;6213850;23;20427;-41
2022/12/12 10:26:09;;;;;;;56.47;27.00;;;-0.60;99.90;;;;;;6214024;23;20434;-41
2022/12/12 10:28:35;;;;;;;57.40;25.80;;;-0.30;99.90;;;;;;6213957;23;20703;-45
2022/12/12 10:31:24;;;;;;;51.27;25.70;;;0.30;99.90;;;;;;6214240;23;20362;-42
2022/12/12 10:34:13;;;;;;;59.00;25.90;;;0.90;25.00;;;;;;6213132;23;20604;-41
2022/12/12 10:36:48;;;;;;;54.97;25.00;;;2.00;1.00;;;;;;6213948;23;20380;-42
2022/12/12 10:39:55;;;;;;;51.47;23.80;;;2.80;1.00;;;;;;6213875;23;20803;-43
2022/12/12 10:42:36;;;;;;;53.23;25.07;;;3.40;1.00;;;;;;6213351;23;20401;-43
2022/12/12 10:45:16;;;;;;;53.13;24.20;;;3.90;1.00;;;;;;6213501;23;20378;-42
2022/12/12 10:47:43;;;;;;;50.53;23.37;;;4.20;1.00;;;;;;6213304;23;21050;-42
2022/12/12 10:50:09;;;;;;;55.33;25.03;;;5.40;1.00;;;;;;6186589;23;20398;-42
2022/12/12 10:52:34;;;;;;;51.30;25.13;;;6.80;1.00;;;;;;6213875;23;20496;-41
2022/12/12 10:55:00;;;;;;;50.07;24.90;;;8.10;1.00;;;;;;6213371;23;20446;-42
2022/12/12 10:57:34;;;;;;;43.13;25.53;;;9.30;1.00;;;;;;6213852;23;20165;-42
2022/12/12 11:00:24;;;;;;;48.13;25.90;;;9.70;1.00;;;;;;6213392;23;20791;-43
2022/12/12 11:02:49;;;;;;;45.33;24.33;;;10.20;1.00;;;;;;6213591;23;20452;-43
2022/12/12 11:05:27;;;;;;;50.30;26.63;;;10.00;1.00;;;;;;6213504;23;20802;-42
2022/12/12 11:08:02;;;;;;;47.20;25.13;;;8.90;1.00;;;;;;6213831;23;20183;-42
2022/12/12 11:10:36;;;;;;;46.50;26.17;;;8.10;1.00;;;;;;6214106;23;20377;-43
2022/12/12 11:13:15;;;;;;;53.17;27.40;;;7.40;1.00;;;;;;6213577;23;20388;-42
2022/12/12 11:15:50;;;;;;;48.27;25.43;;;6.90;1.00;;;;;;6213748;23;20420;-42
2022/12/12 11:18:21;;;;;;;49.93;25.00;;;6.80;1.00;;;;;;6213096;23;20361;-42
2022/12/12 11:20:48;;;;;;;49.43;25.23;;;6.70;1.00;;;;;;6186796;23;20386;-42
2022/12/12 11:23:23;;;;;;;53.50;26.00;;;6.80;1.00;;;;;;6213175;23;20441;-42
2022/12/12 11:26:02;;;;;;;48.10;23.50;;;6.80;1.00;;;;;;6213717;23;20358;-43
2022/12/12 11:28:35;;;;;;;50.80;25.30;;;6.60;1.00;;;;;;6213828;23;20879;-42
2022/12/12 11:31:05;;;;;;;51.60;25.77;;;6.10;1.00;;;;;;6213750;23;20368;-42
2022/12/12 11:33:36;;;;;;;48.80;25.27;;;5.50;1.00;;;;;;6213515;23;20361;-42
2022/12/12 11:36:05;;;;;;;45.97;22.60;;;4.90;1.00;;;;;;6213147;23;20357;-42
2022/12/12 11:38:36;;;;;;;52.67;24.97;;;4.70;1.00;;;;;;6213595;23;20719;-42
2022/12/12 11:41:06;;;;;;;50.07;24.43;;;4.60;1.00;;;;;;6213716;23;20365;-42
2022/12/12 11:43:47;;;;;;;52.87;24.80;;;5.00;1.00;;;;;;6187021;23;20480;-42
2022/12/12 11:46:12;;;;;;;51.07;26.20;;;5.00;1.00;;;;;;6213331;23;20496;-43
2022/12/12 11:48:44;;;;;;;53.03;24.67;;;4.90;1.00;;;;;;6213590;23;20390;-42
2022/12/12 11:51:10;;;;;;;52.07;25.60;;;5.00;1.00;;;;;;6213527;23;20672;-42
2022/12/12 11:53:42;;;;;;;50.47;24.30;;;5.00;1.00;;;;;;6213405;23;20389;-41
2022/12/12 11:56:56;;;;;;;55.23;24.97;;;4.60;1.00;;;;;;6213709;23;20631;-42
2022/12/12 11:59:34;;;;;;;53.50;25.20;;;4.70;1.00;;;;;;6193668;23;20398;-42
2022/12/12 12:02:36;;;;;;;51.50;23.50;;;5.00;1.00;;;;;;6213132;23;20869;-42
2022/12/12 12:05:23;;;;;;;50.73;22.47;;;5.50;1.00;;;;;;6213195;23;20447;-41
2022/12/12 12:08:14;;;;;;;45.50;23.57;;;5.80;1.00;;;;;;6213197;23;21097;-42
2022/12/12 12:10:51;;;;;;;47.27;22.93;;;5.70;1.00;;;;;;6213599;23;20366;-42
2022/12/12 12:13:38;;;;;;;52.10;24.23;;;5.60;1.00;;;;;;6213333;23;20428;-42
2022/12/12 12:16:15;;;;;;;51.47;24.33;;;6.30;1.00;;;;;;6213425;23;20469;-43
2022/12/12 12:19:07;;;;;;;51.07;25.00;;;7.30;1.00;;;;;;6213474;23;20370;-42
2022/12/12 12:21:58;;;;;;;45.03;22.80;;;8.70;1.00;;;;;;6213303;23;20365;-42
2022/12/12 12:24:42;;;;;;;47.10;23.33;;;10.20;1.00;;;;;;6213248;23;20440;-43
2022/12/12 12:27:19;;;;;;;42.80;22.57;;;11.70;1.00;;;;;;6213051;23;20467;-43
2022/12/12 12:30:06;;;;;;;44.53;22.70;;;13.10;1.00;;;;;;6213146;23;20370;-43
2022/12/12 12:32:56;;;;;;;42.60;22.30;;;14.10;1.00;;;;;;6213013;23;20372;-43
2022/12/12 12:35:40;;;;;;;48.93;24.20;;;14.30;99.90;;;;;;6212806;23;20373;-43
2022/12/12 12:38:27;;;;;;;44.63;24.77;;;14.80;99.90;;;;;;6213009;23;20370;-43
2022/12/12 12:41:06;;;;;;;42.10;22.83;;;15.00;99.90;;;;;;6213239;23;20366;-43
2022/12/12 12:44:08;;;;;;;45.10;24.60;;;15.40;99.90;;;;;;6212776;23;20366;-43
2022/12/12 12:46:46;;;;;;;44.83;23.70;;;15.40;99.90;;;;;;6212934;23;20576;-43
2022/12/12 12:49:21;;;;;;;36.97;21.60;;;14.00;99.90;;;;;;6213026;23;20512;-45
2022/12/12 12:52:01;;;;;;;42.60;22.20;;;14.30;99.90;;;;;;6212571;23;20386;-44
2022/12/12 12:54:35;;;;;;;39.30;20.90;;;14.60;99.90;;;;;;6212956;23;20420;-44
2022/12/12 12:57:26;;;;;;;39.93;22.77;;;15.00;99.90;;;;;;6213204;23;20373;-44
2022/12/12 12:59:58;;;;;;;40.57;21.67;;;14.30;99.90;;;;;;6214885;23;20381;-43
2022/12/12 13:02:50;;;;;;;45.97;22.40;;;12.50;99.90;;;;;;6214663;23;20374;-43
2022/12/12 13:05:21;;;;;;;40.23;22.00;;;10.80;99.90;;;;;;6210374;23;20444;-44
2022/12/12 13:08:12;;;;;;;38.17;20.60;;;9.90;99.90;;;;;;6214879;23;20428;-43
2022/12/12 13:10:45;;;;;;;39.93;20.40;;;8.80;99.90;;;;;;6214959;23;20434;-43
2022/12/12 13:13:30;;;;;;;37.37;20.63;;;7.90;99.90;;;;;;6214576;23;20354;-43
2022/12/12 13:16:10;;;;;;;36.33;18.60;;;8.00;99.90;;;;;;6214753;23;20362;-43